Terminal Aerodrome Forecast
Issued by NWS

Current Version | Previous Version | Text Only | Print | Product List | Glossary On
Versions: 1 2 3 4 5 6 7 8 9 10 11 12 13 14 15
677
FTUS44 KMAF 301727
TAFHOB
TAF
KHOB 301727Z 3018/0118 18010KT P6SM SKC
     FM010400 10006KT P6SM SKC
     FM010800 04025G35KT P6SM OVC015=

USA.gov is the U.S. government's official web portal to all federal, state and local government web resources and services.